createdAt,value
2019-02-20T00:02:17.912Z,38.30
2019-02-20T00:04:44.098Z,38.30
2019-02-20T00:07:10.235Z,38.30
2019-02-20T00:09:36.417Z,38.30
2019-02-20T00:12:03.365Z,38.40
2019-02-20T00:14:29.534Z,38.20
2019-02-20T00:16:55.697Z,38.30
2019-02-20T00:19:21.861Z,37.90
2019-02-20T00:24:28.620Z,38.20
2019-02-20T00:26:54.793Z,38.40
2019-02-20T00:29:20.954Z,38.30
2019-02-20T00:31:47.893Z,38.30
2019-02-20T00:34:14.049Z,38.30
2019-02-20T00:36:40.217Z,38.30
2019-02-20T00:39:06.387Z,38.30
2019-02-20T00:41:32.604Z,38.30
2019-02-20T00:43:58.773Z,38.30
2019-02-20T00:46:24.957Z,38.30
2019-02-20T00:48:51.124Z,38.30
2019-02-20T00:51:17.303Z,38.30
2019-02-20T00:53:43.466Z,38.30
2019-02-20T00:56:09.630Z,38.40
2019-02-20T00:58:35.780Z,38.30
2019-02-20T01:01:01.932Z,38.40
2019-02-20T01:03:28.082Z,38.30
2019-02-20T01:05:57.865Z,38.40
2019-02-20T01:08:24.036Z,38.30
2019-02-20T01:10:50.975Z,38.20
2019-02-20T01:13:17.160Z,38.30
2019-02-20T01:15:43.329Z,38.30
2019-02-20T01:18:10.270Z,38.30
2019-02-20T01:20:36.430Z,38.30
2019-02-20T01:23:02.607Z,38.30
2019-02-20T01:25:28.766Z,38.30
2019-02-20T01:27:54.937Z,38.30
2019-02-20T01:30:21.102Z,38.30
2019-02-20T01:32:51.515Z,38.20
2019-02-20T01:35:17.685Z,38.30
2019-02-20T01:37:43.876Z,38.30
2019-02-20T01:40:10.818Z,38.40
2019-02-20T01:42:36.988Z,38.40
2019-02-20T01:45:03.138Z,38.40
2019-02-20T01:47:29.308Z,38.40
2019-02-20T01:49:56.254Z,38.40
2019-02-20T01:52:22.407Z,38.40
2019-02-20T01:54:48.562Z,38.30
2019-02-20T01:57:14.729Z,38.40
2019-02-20T01:59:40.889Z,38.30
2019-02-20T02:02:07.039Z,38.40
2019-02-20T02:04:33.201Z,38.30
2019-02-20T02:06:59.362Z,38.40
2019-02-20T02:09:25.530Z,38.30
2019-02-20T02:11:51.696Z,38.30
2019-02-20T02:14:17.897Z,38.30
2019-02-20T02:16:44.058Z,38.30
2019-02-20T02:19:10.229Z,38.30
2019-02-20T02:21:36.398Z,38.40
2019-02-20T02:24:02.608Z,38.40
2019-02-20T02:26:28.769Z,38.40
2019-02-20T02:28:54.962Z,38.40
2019-02-20T02:31:21.135Z,38.40
2019-02-20T02:33:47.289Z,38.30
2019-02-20T02:36:13.445Z,38.30
2019-02-20T02:38:39.622Z,38.40
2019-02-20T02:41:05.803Z,38.40
2019-02-20T02:43:31.959Z,38.40
2019-02-20T02:45:58.139Z,38.40
2019-02-20T02:48:24.286Z,38.40
2019-02-20T02:50:50.479Z,38.50
2019-02-20T02:53:16.672Z,38.40
2019-02-20T02:55:42.843Z,38.40
2019-02-20T02:58:09.004Z,38.40
2019-02-20T03:00:35.212Z,38.40
2019-02-20T03:03:01.386Z,38.40
2019-02-20T03:05:27.572Z,38.40
2019-02-20T03:07:54.498Z,38.50
2019-02-20T03:10:20.687Z,38.40
2019-02-20T03:12:46.842Z,38.50
2019-02-20T03:15:13.802Z,38.50
2019-02-20T03:17:39.980Z,38.40
2019-02-20T03:20:06.142Z,38.50
2019-02-20T03:22:32.306Z,38.40
2019-02-20T03:24:58.474Z,38.40
2019-02-20T03:27:24.636Z,38.40
2019-02-20T03:29:50.799Z,38.50
2019-02-20T03:32:16.963Z,38.50
2019-02-20T03:34:43.152Z,38.50
2019-02-20T03:37:09.314Z,38.50
2019-02-20T03:39:35.543Z,38.50
2019-02-20T03:42:02.541Z,38.50
2019-02-20T03:44:28.700Z,38.50
2019-02-20T03:46:54.889Z,38.50
2019-02-20T03:49:21.044Z,38.50
2019-02-20T03:51:51.837Z,38.60
2019-02-20T03:54:18.053Z,38.50
2019-02-20T03:56:44.228Z,38.50
2019-02-20T03:59:10.390Z,38.50
2019-02-20T04:01:36.568Z,38.60
2019-02-20T04:04:02.727Z,38.50
2019-02-20T04:06:28.902Z,38.50
2019-02-20T04:08:55.085Z,38.60
2019-02-20T04:11:21.248Z,38.60
2019-02-20T04:13:47.427Z,38.60
2019-02-20T04:16:13.593Z,38.60
2019-02-20T04:18:39.798Z,38.50
2019-02-20T04:21:05.952Z,38.60
2019-02-20T04:23:32.109Z,38.60
2019-02-20T04:25:59.037Z,38.60
2019-02-20T04:28:25.239Z,38.60
2019-02-20T04:30:51.389Z,38.60
2019-02-20T04:33:17.557Z,38.50
2019-02-20T04:35:43.707Z,38.50
2019-02-20T04:38:09.886Z,38.50
2019-02-20T04:40:36.053Z,38.60
2019-02-20T04:43:02.229Z,38.50
2019-02-20T04:45:28.397Z,38.50
2019-02-20T04:47:54.568Z,38.60
2019-02-20T04:50:21.641Z,38.60
2019-02-20T04:52:47.788Z,38.60
2019-02-20T04:55:13.958Z,38.70
2019-02-20T04:57:40.107Z,38.60
2019-02-20T05:00:06.282Z,38.70
2019-02-20T05:02:32.451Z,38.60
2019-02-20T05:04:58.607Z,38.60
2019-02-20T05:07:24.754Z,38.60
2019-02-20T05:09:50.909Z,38.60
2019-02-20T05:12:17.073Z,38.60
2019-02-20T05:14:43.263Z,38.70
2019-02-20T05:17:09.427Z,38.60
2019-02-20T05:19:35.600Z,38.60
2019-02-20T05:22:01.769Z,38.60
2019-02-20T05:24:27.944Z,38.60
2019-02-20T05:26:57.644Z,38.60
2019-02-20T05:29:24.586Z,38.60
2019-02-20T05:31:50.744Z,38.60
2019-02-20T05:34:16.917Z,38.70
2019-02-20T05:36:43.065Z,38.50
2019-02-20T05:39:09.235Z,38.60
2019-02-20T05:41:35.389Z,38.50
2019-02-20T05:44:01.583Z,38.60
2019-02-20T05:46:27.757Z,38.40
2019-02-20T05:48:53.944Z,38.50
2019-02-20T05:51:20.107Z,38.50
2019-02-20T05:53:46.271Z,38.50
2019-02-20T05:56:12.431Z,38.50
2019-02-20T05:58:38.590Z,38.50
2019-02-20T06:01:05.521Z,38.40
2019-02-20T06:03:31.677Z,38.40
2019-02-20T06:05:57.851Z,38.50
2019-02-20T06:08:24.036Z,38.40
2019-02-20T06:10:50.183Z,38.40
2019-02-20T06:13:16.341Z,38.50
2019-02-20T06:15:43.289Z,38.40
2019-02-20T06:18:09.448Z,38.40
2019-02-20T06:20:35.621Z,38.40
2019-02-20T06:23:01.780Z,38.50
2019-02-20T06:25:27.934Z,38.40
2019-02-20T06:27:54.093Z,38.40
2019-02-20T06:30:21.030Z,38.40
2019-02-20T06:35:18.921Z,38.10
2019-02-20T06:37:45.089Z,38.40
2019-02-20T06:40:11.258Z,38.40
2019-02-20T06:42:37.412Z,38.30
2019-02-20T06:45:03.585Z,38.30
2019-02-20T06:47:29.762Z,38.40
2019-02-20T06:49:55.922Z,38.40
2019-02-20T06:52:22.100Z,38.40
2019-02-20T06:54:53.998Z,38.30
2019-02-20T06:57:15.230Z,38.30
2019-02-20T06:59:41.382Z,38.40
2019-02-20T07:02:07.540Z,38.90
2019-02-20T07:04:33.696Z,38.30
2019-02-20T07:06:59.851Z,38.30
2019-02-20T07:09:26.005Z,38.30
2019-02-20T07:11:52.188Z,38.20
2019-02-20T07:14:18.344Z,38.40
2019-02-20T07:16:44.525Z,38.20
2019-02-20T07:19:10.679Z,38.20
2019-02-20T07:21:36.857Z,38.10
2019-02-20T07:24:03.043Z,38.20
2019-02-20T07:26:29.188Z,38.10
2019-02-20T07:28:55.347Z,38.20
2019-02-20T07:31:21.549Z,38.00
2019-02-20T07:33:47.713Z,38.10
2019-02-20T07:36:13.885Z,38.10
2019-02-20T07:38:40.056Z,38.30
2019-02-20T07:41:06.226Z,38.10
2019-02-20T07:43:32.398Z,38.20
2019-02-20T07:45:58.569Z,38.20
2019-02-20T07:48:24.736Z,38.30
2019-02-20T07:50:50.929Z,38.20
2019-02-20T07:53:17.092Z,38.10
2019-02-20T07:55:43.269Z,38.10
2019-02-20T07:58:09.428Z,38.20
2019-02-20T08:00:35.583Z,38.20
2019-02-20T08:03:02.523Z,38.20
2019-02-20T08:05:28.841Z,38.10
2019-02-20T08:07:55.002Z,38.00
2019-02-20T08:10:21.168Z,38.00
2019-02-20T08:12:47.366Z,38.10
2019-02-20T08:15:13.551Z,38.10
2019-02-20T08:17:40.498Z,38.10
2019-02-20T08:20:06.666Z,38.10
2019-02-20T08:22:32.823Z,38.20
2019-02-20T08:24:58.987Z,38.20
2019-02-20T08:27:25.163Z,38.20
2019-02-20T08:29:51.320Z,38.30
2019-02-20T08:32:17.506Z,38.30
2019-02-20T08:34:43.663Z,38.30
2019-02-20T08:37:09.830Z,38.20
2019-02-20T08:39:36.040Z,38.30
2019-02-20T08:42:02.200Z,38.20
2019-02-20T08:44:28.377Z,38.10
2019-02-20T08:46:54.538Z,38.20
2019-02-20T08:49:20.708Z,38.10
2019-02-20T08:51:46.869Z,38.10
2019-02-20T08:54:13.028Z,38.10
2019-02-20T08:56:39.204Z,38.20
2019-02-20T08:59:05.389Z,38.30
2019-02-20T09:01:31.548Z,38.30
2019-02-20T09:03:57.717Z,38.40
2019-02-20T09:06:23.894Z,38.40
2019-02-20T09:08:50.081Z,38.30
2019-02-20T09:11:16.251Z,38.30
2019-02-20T09:13:42.413Z,38.30
2019-02-20T09:16:08.578Z,38.40
2019-02-20T09:18:35.526Z,38.40
2019-02-20T09:21:01.693Z,38.40
2019-02-20T09:23:27.853Z,38.50
2019-02-20T09:25:54.057Z,38.40
2019-02-20T09:28:20.225Z,38.50
2019-02-20T09:30:46.423Z,38.50
2019-02-20T09:33:12.586Z,38.50
2019-02-20T09:35:38.750Z,38.50
2019-02-20T09:38:04.920Z,38.50
2019-02-20T09:40:31.082Z,38.50
2019-02-20T09:42:57.248Z,38.60
2019-02-20T09:45:23.426Z,38.60
2019-02-20T09:47:49.611Z,38.60
2019-02-20T09:50:15.780Z,38.60
2019-02-20T09:52:41.949Z,38.70
2019-02-20T09:55:08.137Z,38.70
2019-02-20T09:57:34.287Z,38.70
2019-02-20T10:00:00.463Z,38.60
2019-02-20T10:02:26.629Z,38.70
2019-02-20T10:04:52.809Z,38.80
2019-02-20T10:07:18.981Z,38.80
2019-02-20T10:09:45.160Z,38.80
2019-02-20T10:12:11.326Z,38.70
2019-02-20T10:14:37.477Z,38.80
2019-02-20T10:17:03.654Z,38.80
2019-02-20T10:19:29.813Z,38.90
2019-02-20T10:21:55.997Z,38.90
2019-02-20T10:24:22.153Z,38.90
2019-02-20T10:26:48.316Z,38.80
2019-02-20T10:29:14.495Z,38.90
2019-02-20T10:31:40.674Z,39.00
2019-02-20T10:34:07.633Z,39.00
2019-02-20T10:36:33.816Z,39.00
2019-02-20T10:38:59.988Z,39.10
2019-02-20T10:41:26.152Z,39.00
2019-02-20T10:43:52.305Z,39.00
2019-02-20T10:46:18.470Z,39.00
2019-02-20T10:48:44.625Z,39.10
2019-02-20T10:51:10.791Z,39.10
2019-02-20T10:53:36.972Z,39.10
2019-02-20T10:56:09.316Z,39.00
2019-02-20T10:58:30.064Z,39.10
2019-02-20T11:00:56.224Z,39.10
2019-02-20T11:03:22.388Z,39.00
2019-02-20T11:05:48.543Z,39.00
2019-02-20T11:08:14.707Z,39.00
2019-02-20T11:10:40.853Z,39.10
2019-02-20T11:13:07.016Z,39.10
2019-02-20T11:15:33.172Z,39.20
2019-02-20T11:17:59.330Z,39.20
2019-02-20T11:20:25.506Z,39.10
2019-02-20T11:22:51.676Z,39.20
2019-02-20T11:25:17.838Z,39.30
2019-02-20T11:27:44.014Z,39.40
2019-02-20T11:30:10.173Z,39.30
2019-02-20T11:32:36.354Z,39.40
2019-02-20T11:35:02.526Z,39.50
2019-02-20T11:37:28.685Z,39.60
2019-02-20T11:39:54.844Z,39.50
2019-02-20T11:42:21.014Z,39.50
2019-02-20T11:44:47.198Z,39.40
2019-02-20T11:47:13.352Z,39.50
2019-02-20T11:49:39.514Z,39.60
2019-02-20T11:52:05.672Z,39.50
2019-02-20T11:54:31.845Z,39.60
2019-02-20T11:56:58.007Z,39.60
2019-02-20T11:59:24.166Z,39.70
2019-02-20T12:01:50.350Z,39.70
2019-02-20T12:04:16.674Z,39.70
2019-02-20T12:06:42.855Z,39.70
2019-02-20T12:09:09.010Z,39.70
2019-02-20T12:11:35.170Z,39.80
2019-02-20T12:14:02.113Z,39.70
2019-02-20T12:16:28.260Z,39.70
2019-02-20T12:18:54.437Z,39.70
2019-02-20T12:21:20.604Z,39.60
2019-02-20T12:23:46.781Z,39.60
2019-02-20T12:26:12.940Z,39.70
2019-02-20T12:28:39.902Z,39.80
2019-02-20T12:31:06.062Z,39.70
2019-02-20T12:33:32.234Z,39.70
2019-02-20T12:35:58.406Z,39.80
2019-02-20T12:38:24.559Z,39.80
2019-02-20T12:40:50.957Z,39.80
2019-02-20T12:43:16.912Z,39.90
2019-02-20T12:45:43.835Z,39.90
2019-02-20T12:48:10.028Z,39.90
2019-02-20T12:50:36.181Z,40.00
2019-02-20T12:53:02.353Z,39.90
2019-02-20T12:55:28.503Z,39.90
2019-02-20T12:57:54.660Z,40.00
2019-02-20T13:00:20.815Z,40.00
2019-02-20T13:02:46.974Z,39.90
2019-02-20T13:05:13.171Z,40.00
2019-02-20T13:07:39.330Z,40.00
2019-02-20T13:10:05.471Z,40.00
2019-02-20T13:12:31.643Z,39.90
2019-02-20T13:14:57.823Z,39.90
2019-02-20T13:17:23.980Z,40.00
2019-02-20T13:19:50.158Z,40.00
2019-02-20T13:22:16.818Z,39.90
2019-02-20T13:24:43.999Z,40.10
2019-02-20T13:27:10.284Z,40.00
2019-02-20T13:29:35.099Z,40.00
2019-02-20T13:32:01.261Z,40.00
2019-02-20T13:34:27.451Z,40.10
2019-02-20T13:36:53.632Z,40.10
2019-02-20T13:39:19.786Z,40.00
2019-02-20T13:41:45.968Z,40.00
2019-02-20T13:44:12.985Z,40.00
2019-02-20T13:46:40.276Z,40.00
2019-02-20T13:49:06.455Z,40.00
2019-02-20T13:51:32.654Z,40.00
2019-02-20T13:54:03.980Z,40.00
2019-02-20T13:56:30.924Z,40.60
2019-02-20T13:58:58.010Z,40.00
2019-02-20T14:01:24.192Z,40.00
2019-02-20T14:03:50.509Z,40.00
2019-02-20T14:06:16.697Z,40.00
2019-02-20T14:08:42.874Z,39.90
2019-02-20T14:11:09.100Z,39.90
2019-02-20T14:13:35.298Z,39.80
2019-02-20T14:16:01.494Z,39.90
2019-02-20T14:18:27.669Z,39.90
2019-02-20T14:20:54.047Z,39.80
2019-02-20T14:23:20.229Z,39.80
2019-02-20T14:25:46.432Z,39.80
2019-02-20T14:28:13.920Z,39.80
2019-02-20T14:30:40.137Z,39.80
2019-02-20T14:33:06.315Z,39.70
2019-02-20T14:35:32.491Z,39.70
2019-02-20T14:37:58.685Z,39.80
2019-02-20T14:40:24.857Z,39.70
2019-02-20T14:42:51.038Z,40.40
2019-02-20T14:45:17.228Z,39.80
2019-02-20T14:47:43.399Z,39.70
2019-02-20T14:50:09.726Z,39.60
2019-02-20T14:52:35.932Z,39.60
2019-02-20T14:55:02.268Z,39.60
2019-02-20T14:57:28.444Z,39.60
2019-02-20T14:59:54.613Z,39.60
2019-02-20T15:02:20.778Z,39.60
2019-02-20T15:04:47.111Z,39.60
2019-02-20T15:07:13.306Z,39.90
2019-02-20T15:09:39.514Z,39.60
2019-02-20T15:12:05.671Z,39.60
2019-02-20T15:14:34.660Z,39.60
2019-02-20T15:16:59.984Z,39.60
2019-02-20T15:19:26.168Z,39.60
2019-02-20T15:21:52.360Z,39.50
2019-02-20T15:24:18.525Z,39.60
2019-02-20T15:26:44.701Z,39.50
2019-02-20T15:29:11.057Z,39.50
2019-02-20T15:31:37.253Z,39.60
2019-02-20T15:34:04.905Z,39.00
2019-02-20T15:36:29.692Z,39.50
2019-02-20T15:38:56.037Z,39.50
2019-02-20T15:41:22.197Z,39.60
2019-02-20T15:43:48.363Z,39.60
2019-02-20T15:46:14.694Z,39.60
2019-02-20T15:48:41.009Z,39.60
2019-02-20T15:51:07.344Z,39.60
2019-02-20T15:53:33.524Z,39.70
2019-02-20T15:55:59.778Z,39.60
2019-02-20T15:58:27.266Z,39.60
2019-02-20T16:00:52.220Z,39.60
2019-02-20T16:03:18.389Z,39.60
2019-02-20T16:05:44.561Z,39.60
2019-02-20T16:08:10.883Z,39.60
2019-02-20T16:10:37.820Z,39.60
2019-02-20T16:13:03.997Z,39.60
2019-02-20T16:15:34.087Z,39.60
2019-02-20T16:18:00.273Z,39.60
2019-02-20T16:20:26.440Z,39.60
2019-02-20T16:22:58.045Z,39.70
2019-02-20T16:25:24.364Z,39.60
2019-02-20T16:27:50.529Z,39.60
2019-02-20T16:30:16.715Z,39.60
2019-02-20T16:32:42.872Z,39.70
2019-02-20T16:35:09.089Z,39.60
2019-02-20T16:37:35.277Z,39.60
2019-02-20T16:40:01.484Z,39.60
2019-02-20T16:42:28.570Z,39.70
2019-02-20T16:44:54.784Z,39.60
2019-02-20T16:47:21.977Z,39.60
2019-02-20T16:49:48.187Z,39.60
2019-02-20T16:52:14.364Z,39.60
2019-02-20T16:54:40.552Z,39.60
2019-02-20T16:57:06.749Z,39.70
2019-02-20T16:59:34.138Z,39.60
2019-02-20T17:02:00.332Z,39.60
2019-02-20T17:04:26.493Z,39.70
2019-02-20T17:06:52.650Z,39.70
2019-02-20T17:09:18.817Z,39.60
2019-02-20T17:11:45.015Z,39.60
2019-02-20T17:14:11.588Z,39.60
2019-02-20T17:16:37.785Z,39.60
2019-02-20T17:19:04.746Z,39.60
2019-02-20T17:21:32.713Z,39.60
2019-02-20T17:23:58.927Z,39.60
2019-02-20T17:26:25.113Z,39.60
2019-02-20T17:28:51.305Z,39.70
2019-02-20T17:31:17.505Z,39.60
2019-02-20T17:33:43.702Z,39.60
2019-02-20T17:36:09.911Z,39.60
2019-02-20T17:38:36.244Z,39.60
2019-02-20T17:41:02.487Z,39.60
2019-02-20T17:43:28.654Z,39.60
2019-02-20T17:45:54.852Z,39.60
2019-02-20T17:48:21.178Z,39.60
2019-02-20T17:50:47.349Z,39.50
2019-02-20T17:53:13.518Z,39.50
2019-02-20T17:55:39.709Z,39.50
2019-02-20T17:58:14.595Z,39.50
2019-02-20T18:00:32.138Z,39.60
2019-02-20T18:02:58.293Z,39.60
2019-02-20T18:05:24.445Z,39.60
2019-02-20T18:07:52.029Z,40.30
2019-02-20T18:10:16.837Z,39.70
2019-02-20T18:12:43.037Z,39.60
2019-02-20T18:15:09.204Z,39.60
2019-02-20T18:17:35.365Z,39.70
2019-02-20T18:20:01.524Z,39.70
2019-02-20T18:22:27.710Z,39.60
2019-02-20T18:24:53.882Z,39.70
2019-02-20T18:27:20.070Z,39.60
2019-02-20T18:29:46.242Z,39.70
2019-02-20T18:32:12.407Z,39.60
2019-02-20T18:34:38.573Z,39.60
2019-02-20T18:37:04.741Z,39.70
2019-02-20T18:39:30.913Z,40.40
2019-02-20T18:41:57.065Z,39.70
2019-02-20T18:44:23.237Z,39.60
2019-02-20T18:46:50.230Z,39.60
2019-02-20T18:49:16.405Z,39.60
2019-02-20T18:51:42.560Z,39.60
2019-02-20T18:54:08.726Z,39.60
2019-02-20T18:56:35.041Z,39.70
2019-02-20T18:59:01.218Z,39.80
2019-02-20T19:01:27.426Z,39.80
2019-02-20T19:03:53.613Z,39.70
2019-02-20T19:06:19.772Z,39.70
2019-02-20T19:08:45.951Z,39.70
2019-02-20T19:11:12.293Z,39.70
2019-02-20T19:13:38.488Z,39.70
2019-02-20T19:16:04.686Z,39.60
2019-02-20T19:18:31.002Z,39.60
2019-02-20T19:20:57.157Z,39.60
2019-02-20T19:23:23.322Z,39.60
2019-02-20T19:25:49.473Z,39.60
2019-02-20T19:28:15.744Z,39.60
2019-02-20T19:30:46.265Z,39.60
2019-02-20T19:33:12.469Z,39.70
2019-02-20T19:35:38.635Z,39.70
2019-02-20T19:38:07.554Z,39.70
2019-02-20T19:40:31.053Z,39.70
2019-02-20T19:42:57.216Z,39.70
2019-02-20T19:45:23.403Z,39.70
2019-02-20T19:47:50.479Z,39.70
2019-02-20T19:50:15.765Z,39.70
2019-02-20T19:52:41.955Z,39.70
2019-02-20T19:55:08.284Z,39.70
2019-02-20T19:57:34.511Z,39.70
2019-02-20T20:00:01.503Z,39.60
2019-02-20T20:02:28.608Z,39.60
2019-02-20T20:04:53.881Z,39.60
2019-02-20T20:07:20.045Z,39.60
2019-02-20T20:09:46.980Z,39.80
2019-02-20T20:12:13.159Z,39.70
2019-02-20T20:14:39.367Z,39.80
2019-02-20T20:17:05.539Z,39.80
2019-02-20T20:19:31.726Z,39.70
2019-02-20T20:21:58.051Z,39.70
2019-02-20T20:24:24.370Z,39.70
2019-02-20T20:26:50.567Z,39.70
2019-02-20T20:29:16.758Z,39.70
2019-02-20T20:31:42.915Z,39.70
2019-02-20T20:34:09.856Z,39.70
2019-02-20T20:36:36.018Z,39.70
2019-02-20T20:39:02.180Z,39.80
2019-02-20T20:41:28.381Z,39.80
2019-02-20T20:43:58.398Z,39.80
2019-02-20T20:46:25.274Z,39.80
2019-02-20T20:48:50.791Z,39.80
2019-02-20T20:51:16.957Z,39.80
2019-02-20T20:53:43.108Z,39.70
2019-02-20T20:56:09.312Z,39.70
2019-02-20T20:58:35.469Z,39.70
2019-02-20T21:01:01.628Z,39.70
2019-02-20T21:03:27.795Z,39.70
2019-02-20T21:05:53.965Z,39.70
2019-02-20T21:08:20.176Z,39.70
2019-02-20T21:10:46.653Z,39.70
2019-02-20T21:13:12.681Z,39.70
2019-02-20T21:15:38.840Z,39.80
2019-02-20T21:18:05.032Z,39.80
2019-02-20T21:20:31.184Z,39.70
2019-02-20T21:22:57.345Z,39.70
2019-02-20T21:25:24.272Z,39.80
2019-02-20T21:27:51.344Z,39.80
2019-02-20T21:30:16.619Z,39.80
2019-02-20T21:32:42.832Z,39.80
2019-02-20T21:35:09.002Z,39.80
2019-02-20T21:37:35.204Z,39.80
2019-02-20T21:40:01.369Z,39.80
2019-02-20T21:42:27.527Z,39.80
2019-02-20T21:44:53.680Z,39.90
2019-02-20T21:47:19.848Z,39.90
2019-02-20T21:49:46.026Z,39.90
2019-02-20T21:52:12.966Z,40.70
2019-02-20T21:54:39.118Z,39.80
2019-02-20T21:57:06.034Z,39.90
2019-02-20T21:59:38.818Z,39.90
2019-02-20T22:01:58.425Z,40.00
2019-02-20T22:04:24.583Z,39.90
2019-02-20T22:06:52.992Z,39.90
2019-02-20T22:09:16.955Z,40.00
2019-02-20T22:11:43.118Z,39.90
2019-02-20T22:14:10.369Z,39.90
2019-02-20T22:16:36.516Z,39.90
2019-02-20T22:19:02.701Z,39.90
2019-02-20T22:21:28.852Z,39.90
2019-02-20T22:23:55.090Z,40.00
2019-02-20T22:26:21.268Z,40.70
2019-02-20T22:28:48.197Z,40.10
2019-02-20T22:31:14.774Z,40.00
2019-02-20T22:33:40.951Z,40.00
2019-02-20T22:36:07.148Z,40.00
2019-02-20T22:38:33.300Z,40.00
2019-02-20T22:40:59.481Z,40.00
2019-02-20T22:43:25.645Z,40.00
2019-02-20T22:45:51.809Z,40.10
2019-02-20T22:48:18.012Z,40.10
2019-02-20T22:50:44.177Z,40.20
2019-02-20T22:53:11.097Z,40.00
2019-02-20T22:55:37.253Z,40.00
2019-02-20T22:58:03.417Z,40.10
2019-02-20T23:00:34.606Z,40.10
2019-02-20T23:02:55.834Z,40.00
2019-02-20T23:05:21.981Z,39.90
2019-02-20T23:07:48.134Z,40.00
2019-02-20T23:10:14.297Z,39.90
2019-02-20T23:12:40.453Z,40.00
2019-02-20T23:15:06.620Z,40.10
2019-02-20T23:17:32.765Z,40.10
2019-02-20T23:19:58.925Z,40.10
2019-02-20T23:22:25.101Z,40.10
2019-02-20T23:24:51.252Z,40.20
2019-02-20T23:27:17.419Z,40.20
2019-02-20T23:29:43.615Z,40.20
2019-02-20T23:32:09.772Z,40.30
2019-02-20T23:34:36.707Z,40.20
2019-02-20T23:37:02.857Z,40.20
2019-02-20T23:39:29.035Z,40.20
2019-02-20T23:41:55.206Z,40.20
2019-02-20T23:44:21.370Z,40.20
2019-02-20T23:46:47.553Z,40.20
2019-02-20T23:49:14.517Z,40.20
2019-02-20T23:51:40.707Z,40.20
2019-02-20T23:54:06.876Z,40.20
2019-02-20T23:56:33.034Z,40.20
2019-02-20T23:58:59.260Z,40.20
